• Join FlightAware (Why Join?)
  • Login
  • US Flag 
08:46PM EDT


 

Airport Tracker/Info


-or-


 

Live Flight TrackerFlight Track Log ✈ N800K ✈ 26-Mar-2014 ✈ KOWB - KGMU

Flight Track Log - Related Links

Times and Time Zones

All times are in EDT time to prevent confusion due to time zone crossing. See the N800K flight status page for this flight to view local times or setup timezone preferences in your user account.

Time Position Orientation Groundspeed Altitude Reporting Facility
EDT Latitude Longitude Course Direction KTS MPH feet Rate Location/Type
03:18PM 37.6958 -87.0931 127° Southeast 106 122 2,900  Level Indianapolis Center
03:19PM 37.6789 -87.0625 125° Southeast 106 122 3,900 900 Climbing Indianapolis Center
03:20PM 37.6614 -87.0311 125° Southeast 106 122 4,800 900 Climbing Indianapolis Center
03:21PM 37.6378 -86.9903 126° Southeast 116 133 5,800 780 Climbing Indianapolis Center
03:22PM 37.5496 -86.8159 127° Southeast  Level FlightAware Approximate
03:22PM 37.6172 -86.9533 125° Southeast 122 140 6,500  Level Indianapolis Center
03:23PM 37.5208 -86.7680 127° Southeast  Level FlightAware Approximate
03:23PM 37.5953 -86.9156 126° Southeast 127 146 7,000  Level Indianapolis Center
03:24PM 37.5700 -86.8686 124° Southeast 149 171 7,000  Level Indianapolis Center
03:25PM 37.5414 -86.8172 125° Southeast 169 194 7,000  Level Indianapolis Center
03:26PM 37.5131 -86.7672 126° Southeast 173 199 7,000  Level Indianapolis Center
03:27PM 37.4814 -86.7100 125° Southeast 172 198 7,000  Level Indianapolis Center
03:28PM 37.4514 -86.6617 128° Southeast 170 196 7,000  Level Indianapolis Center
03:29PM 37.4350 -86.6308 124° Southeast 173 199 7,000 60 Level Indianapolis Center
03:30PM 37.4058 -86.5789 125° Southeast 176 203 7,100  Climbing Indianapolis Center
03:31PM 37.3775 -86.5286 125° Southeast 177 204 7,100  Level Indianapolis Center
03:32PM 37.3458 -86.4700 124° Southeast 177 204 7,100 -60 Level Indianapolis Center
03:33PM 37.3161 -86.4197 127° Southeast 177 204 7,000 -60 Descending Indianapolis Center
03:34PM 37.2864 -86.3675 126° Southeast 178 205 7,000  Level Indianapolis Center
03:35PM 37.2567 -86.3189 128° Southeast 177 204 7,000  Level Indianapolis Center
03:36PM 37.2269 -86.2681 126° Southeast 178 205 7,000  Level Indianapolis Center
03:37PM 37.1969 -86.2175 127° Southeast 178 205 7,000  Level Indianapolis Center
03:38PM 37.1683 -86.1667 125° Southeast 177 204 7,000 -60 Level Indianapolis Center
03:39PM 37.1325 -86.1083 128° Southeast 178 205 6,900 -60 Descending Indianapolis Center
03:40PM 37.1019 -86.0589 128° Southeast 178 205 6,900  Level Indianapolis Center
03:41PM 37.0742 -86.0072 124° Southeast 178 205 7,000  Climbing Indianapolis Center
03:42PM 37.0442 -85.9569 127° Southeast 178 205 7,000  Level Indianapolis Center
03:43PM 37.0175 -85.9058 123° Southeast 178 205 7,000  Level Indianapolis Center
03:44PM 36.9906 -85.8544 123° Southeast 177 204 7,000  Level Indianapolis Center
03:45PM 36.9619 -85.8042 125° Southeast 177 204 7,000  Level Indianapolis Center
03:46PM 36.9281 -85.7464 126° Southeast 177 204 7,000  Level Indianapolis Center
03:47PM 36.8989 -85.6975 127° Southeast 176 203 7,100  Climbing Indianapolis Center
03:48PM 36.8708 -85.6469 125° Southeast 176 203 7,100  Level Indianapolis Center
03:49PM 36.8414 -85.5969 126° Southeast 176 203 7,100  Level Indianapolis Center
03:50PM 36.8111 -85.5478 128° Southeast 176 203 7,100 -60 Level Indianapolis Center
03:51PM 36.7819 -85.4989 127° Southeast 176 203 7,000 -60 Descending Indianapolis Center
03:52PM 36.7525 -85.4503 127° Southeast 176 203 7,000  Level Indianapolis Center
03:54PM 36.7178 -85.3922 127° Southeast 176 203 7,000  Level Indianapolis Center
03:55PM 36.6900 -85.3442 126° Southeast 176 203 7,000  Level Indianapolis Center
03:56PM 36.6603 -85.2953 127° Southeast 176 203 7,000  Level Indianapolis Center
03:57PM 36.6333 -85.2469 125° Southeast 174 200 7,000  Level Indianapolis Center
03:58PM 36.6042 -85.1983 127° Southeast 174 200 7,100  Climbing Indianapolis Center
03:59PM 36.5761 -85.1531 128° Southeast 172 198 7,000 -60 Descending Indianapolis Center
04:00PM 36.5483 -85.1039 125° Southeast 172 198 7,000  Level Indianapolis Center
04:01PM 36.5131 -85.0464 127° Southeast 172 198 7,000  Level Indianapolis Center
04:02PM 36.4847 -84.9969 125° Southeast 172 198 7,000  Level Indianapolis Center
04:03PM 36.4567 -84.9475 125° Southeast 173 199 7,000  Level Indianapolis Center
04:04PM 36.4272 -84.8992 127° Southeast 173 199 7,000  Level Indianapolis Center
04:05PM 36.3981 -84.8489 126° Southeast 176 203 7,000  Level Indianapolis Center
04:06PM 36.3689 -84.8008 127° Southeast 175 201 7,000  Level Indianapolis Center
04:07PM 36.3339 -84.7406 126° Southeast 176 203 7,000  Level Indianapolis Center
04:08PM 36.3053 -84.6914 126° Southeast 176 203 7,000  Level Indianapolis Center
04:09PM 36.2747 -84.6439 129° Southeast 176 203 7,000  Level Indianapolis Center
04:10PM 36.2456 -84.5953 127° Southeast 176 203 7,000  Level Indianapolis Center
04:11PM 36.2167 -84.5461 126° Southeast 176 203 7,000  Level Indianapolis Center
04:12PM 36.1878 -84.4969 126° Southeast 176 203 7,000  Level Indianapolis Center
04:13PM 36.1572 -84.4492 128° Southeast 176 203 7,000  Level Indianapolis Center
04:14PM 36.1228 -84.3897 126° Southeast 176 203 7,000  Level Indianapolis Center
04:15PM 36.0933 -84.3414 127° Southeast 176 203 7,000  Level Indianapolis Center
04:16PM 36.0622 -84.2944 129° Southeast 176 203 7,000  Level Indianapolis Center
04:18PM 36.0186 -84.2286 129° Southeast 173 199 7,100  Climbing Atlanta Center
04:19PM 35.9914 -84.1800 125° Southeast 173 199 7,100  Level Atlanta Center
04:20PM 35.9811 -84.1258 103° East 160 184 7,100 120 Level Atlanta Center
04:30PM 35.6906 -83.6400 129° Southeast 187 215 9,100 120 Climbing Atlanta Center
04:31PM 35.6646 -83.6349 129° Southeast  Level FlightAware Approximate
04:31PM 35.6569 -83.5914 130° Southeast 187 215 9,100  Level Atlanta Center
04:32PM 35.6354 -83.5900 129° Southeast  Level FlightAware Approximate
04:32PM 35.6256 -83.5406 127° Southeast 187 215 9,100  Level Atlanta Center
04:33PM 35.6063 -83.5452 129° Southeast  Level FlightAware Approximate
04:33PM 35.5939 -83.4922 129° Southeast 182 209 9,100  Level Atlanta Center
04:34PM 35.5770 -83.5003 129° Southeast  Level FlightAware Approximate
04:34PM 35.5644 -83.4414 125° Southeast 182 209 9,100  Level Atlanta Center
04:35PM 35.5308 -83.3956 132° Southeast 182 209 9,100  Level Atlanta Center
04:36PM 35.5014 -83.3450 126° Southeast 182 209 9,100  Level Atlanta Center
04:37PM 35.4697 -83.2942 127° Southeast 182 209 9,100  Level Atlanta Center
04:38PM 35.4383 -83.2461 129° Southeast 182 209 9,100 -60 Level Atlanta Center
04:39PM 35.4025 -83.1928 129° Southeast 194 223 9,000 -60 Descending Atlanta Center
04:40PM 35.3686 -83.1422 129° Southeast 194 223 9,000  Level Atlanta Center
04:41PM 35.3369 -83.0942 129° Southeast 194 223 9,000 -60 Level Atlanta Center
04:42PM 35.3033 -83.0411 128° Southeast 194 223 8,900 -60 Descending Atlanta Center
04:43PM 35.2672 -82.9908 131° Southeast 194 223 8,900  Level Atlanta Center
04:44PM 35.2356 -82.9428 129° Southeast 194 223 8,900 60 Level Atlanta Center
04:45PM 35.1997 -82.8975 134° Southeast 189 217 9,100 60 Climbing Atlanta Center
04:46PM 35.1678 -82.8419 125° Southeast 189 217 9,100 -300 Level Atlanta Center
04:47PM 35.1339 -82.7917 129° Southeast 189 217 8,500 -600 Descending Atlanta Center
04:48PM 35.0981 -82.7492 136° Southeast 189 217 7,900 -720 Descending Atlanta Center
04:49PM 35.0725 -82.6911 118° Southeast 184 212 7,100 -480 Descending Atlanta Center
04:50PM 35.0428 -82.6436 127° Southeast 178 205 7,000 -60 Descending Atlanta Center
04:51PM 35.0150 -82.6033 130° Southeast 173 199 7,000 -300 Level Atlanta Center
04:52PM 34.9853 -82.5556 127° Southeast 173 199 6,400 -900 Descending Atlanta Center
04:53PM 34.9556 -82.5081 127° Southeast 178 205 5,300 -960 Descending Atlanta Center
04:54PM 34.9339 -82.4578 118° Southeast 173 199 4,500 -1,080 Descending Atlanta Center
04:55PM 34.9144 -82.4025 113° Southeast 168 193 3,200 2,220 Descending Atlanta Center
04:56PM 34.8886 -82.3497 121° Southeast 168 193 9,000 5,760 Climbing Atlanta Center
04:59PM 34.8479 -82.3500 129° Southeast  Level Estimated
05:06PM 34.8479 -82.3500 North  Level Estimated
05:07PM 34.8479 -82.3500 129° Southeast  Level Estimated